Aérodrome :
LOGIN :

S'inscrire | Disclaimer

   EN    FR    IT 

 










Légende :    VFR   VFR Marginal   IFR   IFR Intensif   IFR Très Intensif
Visi : 
Plafond : 
>= 8 km
>= 3000ft
5 à 8 km
1000 à 3000 ft
1500m à 5 km
500 à 1000 ft
800 à 1500m
200 à 500 ft
< 800m
< 200 ft
Symboles :   Orages  Brouillard  Fortes neiges  Fortes précipitations  Vent > 20 kt
SIGMETs :   Divers  Orages  Givrage  Turbulence  Onde Orograph.  Cendres Volcan.







- Altitude de l'aérodrome : 49 ft
- Code IATA : GLZ


EHGR - Gilze-Rijen Airbase

DERNIER METAR :
  • 160507Z AUTO 28007KT 8000 BR SCT260 01/01 Q1007 BLU

METARs EXPIRÉS :
  • 160455Z AUTO 28006KT 6000 BR BKN250 01/00 Q1007 WHT
  • 160425Z AUTO 27005KT 2300 BR FEW082 02/01 Q1007 YLO
  • 160355Z AUTO 27005KT 1900 BR FEW036 02/01 Q1006 YLO
  • 160325Z AUTO 27007KT 250V310 2400 BR FEW015CB BKN038 BKN042 02/02 Q1006 REDZ YLO
  • 160255Z AUTO 27006KT 2100 BR FEW039 OVC064 02/01 Q1006 YLO
  • 160225Z AUTO 25004KT 2500 BR FEW031 SCT054 BKN059 02/01 Q1006 YLO

Prévision TAF périmée.
Pas de NOTAMs connus pour ce terrain.



MET'MAP, la Météo Aéronautique d'un coup d'oeil ! - Copyright ORBIFLY Décembre 2007 - Disclaimer

ORBIFLY MET'MAP TEAM :

Programmation & Développement : Alexandra Zaïnal
Conception & Développement : Baudouin d'Aumeries
Co-Programmation & Développement : Marc-Olivier Méhu
Soutien technique & logistique : Manuel Goepfert

Contact : metmap@orbifly.com




SOURCES & CREDITS :

   NOAA